フォークランド諸島 の空港の天気 - METARとTAF

マウント・プレザント空軍基地 ( EGYP / MPN ) - フォークランド諸島 フォークランド諸島
飛行場実況気象(Metar)
観測時間10/25 18:50 FKST (10/25 21:50 UTC)
風向・風速北北西 6m/s
視程10km以上
天気現象弱い雨
全天の4割程度の雲 雲底高度 180m
全天の8割程度の雲 雲底高度 1830m
全天の8割程度の雲 雲底高度 3660m
気温7℃
湿度93%
気圧996hPa
METAREGYP 252150Z 34011KT 9999 -RA SCT006 BKN060 BKN120 07/06 Q0996
過去の天気等 Google飛行場航空写真 Wunderground天気予報

過去48時間のMETAR

飛行場予報(TAF)
発表時間: 10/25 16:51 FKST (10/25 19:51 UTC)
予報対象時間: 25日18時 FKST ~ 26日12時 FKST
風向・風速北 8m/s 瞬間風速 13m/s
視程10km以上
全天の8割程度の雲 雲底高度 180m
25日18時 FKST ~ 25日22時 FKST に一時的に
視程3500m
天気現象弱い雨霧雨
全天の8割程度の雲 雲底高度 90m
25日18時 FKST ~ 25日22時 FKST に 確率 40% で一時的に
風向・風速不定 4m/s
視程2000m
天気現象雨霧雨
全天の8割程度の雲 雲底高度 60m
25日19時 FKST ~ 25日22時 FKST に 確率 30% で一時的に
視程700m
天気現象
全天の8割程度の雲 雲底高度 0m
25日20時 FKST ~ 25日22時 FKST に徐々に
風向・風速西北西 7m/s
少しの雲 雲底高度 90m
全天の8割程度の雲 雲底高度 240m
25日22時 FKST ~ 26日9時 FKST に一時的に
視程5000m
天気現象弱い雨霧雨
全天の8割程度の雲 雲底高度 120m
25日22時 FKST ~ 26日8時 FKST に 確率 40% で一時的に
視程2000m
天気現象弱い霧雨
26日5時 FKST ~ 26日7時 FKST に徐々に
風向・風速西 9m/s 瞬間風速 14m/s
26日9時 FKST ~ 26日11時 FKST に 確率 30% で一時的に
視程7000m
天気現象弱い雨霧雨
26日10時 FKST ~ 26日12時 FKST に徐々に
全天の8割程度の雲 雲底高度 610m
TAF EGYP 251951Z 2521/2615 01015G25KT 9999 BKN006 520003
TEMPO 2521/2601 3500 -RADZ BKN003
PROB40 TEMPO 2521/2601 VRB08KT 2000 RADZ BKN002 560003
PROB30 TEMPO 2522/2601 0700 FG BKN000
BECMG 2523/2601 30013KT FEW003 BKN008 50////
TEMPO 2601/2612 5000 -RADZ BKN004
PROB40 TEMPO 2601/2611 2000 -DZ
BECMG 2608/2610 26017G27KT
PROB30 TEMPO 2612/2614 7000 -RADZ
BECMG 2613/2615 BKN020